createdAt,value
2022-12-21T00:01:18.621Z,100695.13
2022-12-21T00:03:46.262Z,100693.06
2022-12-21T00:06:13.999Z,100693.66
2022-12-21T00:08:45.864Z,100693.84
2022-12-21T00:11:13.922Z,100681.66
2022-12-21T00:13:42.657Z,100687.94
2022-12-21T00:16:18.192Z,100678.00
2022-12-21T00:18:45.341Z,100684.44
2022-12-21T00:21:17.341Z,100681.97
2022-12-21T00:23:45.433Z,100681.00
2022-12-21T00:26:13.781Z,100682.59
2022-12-21T00:28:40.925Z,100688.94
2022-12-21T00:31:12.437Z,100689.03
2022-12-21T00:33:40.191Z,100694.59
2022-12-21T00:36:09.019Z,100690.19
2022-12-21T00:38:35.711Z,100697.03
2022-12-21T00:41:04.682Z,100700.88
2022-12-21T00:43:33.395Z,100698.00
2022-12-21T00:46:00.278Z,100689.88
2022-12-21T00:48:28.392Z,100683.13
2022-12-21T00:50:54.892Z,100686.78
2022-12-21T00:53:21.638Z,100681.84
2022-12-21T00:55:56.829Z,100685.81
2022-12-21T00:58:24.811Z,100696.06
2022-12-21T01:00:55.866Z,100693.28
2022-12-21T01:03:23.747Z,100702.16
2022-12-21T01:05:51.497Z,100702.81
2022-12-21T01:08:19.957Z,100693.16
2022-12-21T01:10:46.689Z,100686.13
2022-12-21T01:13:14.010Z,100700.66
2022-12-21T01:15:42.149Z,100705.16
2022-12-21T01:18:09.655Z,100704.59
2022-12-21T01:20:41.430Z,100697.34
2022-12-21T01:23:08.508Z,100698.28
2022-12-21T01:25:36.422Z,100691.88
2022-12-21T01:28:03.788Z,100699.78
2022-12-21T01:30:30.267Z,100704.38
2022-12-21T01:32:56.620Z,100713.16
2022-12-21T01:35:23.262Z,100717.00
2022-12-21T01:37:49.607Z,100708.97
2022-12-21T01:40:15.992Z,100713.78
2022-12-21T01:42:42.323Z,100708.56
2022-12-21T01:45:30.184Z,100718.28
2022-12-21T01:48:04.390Z,100720.63
2022-12-21T01:50:35.898Z,100722.00
2022-12-21T01:53:08.281Z,100731.09
2022-12-21T01:55:36.144Z,100729.28
2022-12-21T01:58:05.077Z,100724.47
2022-12-21T02:00:31.419Z,100729.06
2022-12-21T02:03:01.685Z,100719.25
2022-12-21T02:05:34.079Z,100710.47
2022-12-21T02:08:03.313Z,100710.34
2022-12-21T02:10:30.354Z,100714.41
2022-12-21T02:13:01.841Z,100718.81
2022-12-21T02:15:51.212Z,100716.44
2022-12-21T02:18:39.687Z,100720.63
2022-12-21T02:21:14.901Z,100713.66
2022-12-21T02:23:49.054Z,100720.72
2022-12-21T02:26:26.418Z,100715.69
2022-12-21T02:29:12.796Z,100717.19
2022-12-21T02:31:51.046Z,100715.28
2022-12-21T02:34:44.699Z,100717.28
2022-12-21T02:37:29.885Z,100708.63
2022-12-21T02:40:01.605Z,100701.47
2022-12-21T02:43:05.020Z,100704.44
2022-12-21T02:45:38.405Z,100712.16
2022-12-21T02:48:17.982Z,100704.66
2022-12-21T02:50:50.456Z,100715.44
2022-12-21T02:53:23.001Z,100714.75
2022-12-21T02:55:49.369Z,100710.09
2022-12-21T02:58:21.763Z,100713.72
2022-12-21T03:01:07.917Z,100719.16
2022-12-21T03:03:49.925Z,100719.16
2022-12-21T03:06:29.991Z,100719.06
2022-12-21T03:09:14.845Z,100718.84
2022-12-21T03:12:07.077Z,100724.22
2022-12-21T03:14:48.819Z,100721.88
2022-12-21T03:17:33.539Z,100718.94
2022-12-21T03:20:25.018Z,100721.53
2022-12-21T03:22:58.467Z,100718.19
2022-12-21T03:25:45.814Z,100708.56
2022-12-21T03:28:20.298Z,100703.97
2022-12-21T03:30:52.349Z,100709.63
2022-12-21T03:33:23.591Z,100709.31
2022-12-21T03:35:55.933Z,100704.50
2022-12-21T03:38:27.406Z,100703.78
2022-12-21T03:40:58.362Z,100698.94
2022-12-21T03:43:30.787Z,100696.28
2022-12-21T03:46:04.391Z,100693.72
2022-12-21T03:48:40.184Z,100684.94
2022-12-21T03:51:16.413Z,100691.06
2022-12-21T03:53:51.900Z,100681.84
2022-12-21T03:56:26.331Z,100678.72
2022-12-21T03:58:52.711Z,100673.28
2022-12-21T04:01:32.936Z,100675.44
2022-12-21T04:04:06.069Z,100667.56
2022-12-21T04:06:35.456Z,100669.03
2022-12-21T04:09:05.285Z,100678.88
2022-12-21T04:11:54.989Z,100664.13
2022-12-21T04:14:21.814Z,100665.19
2022-12-21T04:16:48.694Z,100667.84
2022-12-21T04:19:38.016Z,100660.59
2022-12-21T04:22:04.946Z,100667.44
2022-12-21T04:24:50.013Z,100660.28
2022-12-21T04:27:34.695Z,100662.09
2022-12-21T04:30:01.051Z,100661.00
2022-12-21T04:32:27.411Z,100652.28
2022-12-21T04:34:53.818Z,100652.38
2022-12-21T04:37:32.129Z,100653.31
2022-12-21T04:39:59.628Z,100655.13
2022-12-21T04:42:26.280Z,100657.81
2022-12-21T04:44:52.881Z,100650.00
2022-12-21T04:47:19.778Z,100649.47
2022-12-21T04:49:46.752Z,100649.66
2022-12-21T04:52:13.197Z,100644.50
2022-12-21T04:54:39.538Z,100630.97
2022-12-21T04:57:05.884Z,100635.34
2022-12-21T04:59:32.251Z,100643.34
2022-12-21T05:01:58.783Z,100644.41
2022-12-21T05:04:25.398Z,100651.91
2022-12-21T05:06:51.752Z,100646.47
2022-12-21T05:11:45.965Z,100649.16
2022-12-21T05:14:12.379Z,100655.56
2022-12-21T05:16:41.444Z,100651.91
2022-12-21T05:19:07.904Z,100651.16
2022-12-21T05:21:34.395Z,100650.41
2022-12-21T05:24:00.736Z,100659.28
2022-12-21T05:26:27.088Z,100651.91
2022-12-21T05:28:53.758Z,100659.84
2022-12-21T05:31:20.444Z,100651.06
2022-12-21T05:33:46.943Z,100653.75
2022-12-21T05:36:15.971Z,100656.31
2022-12-21T05:38:42.675Z,100652.59
2022-12-21T05:41:10.544Z,100657.03
2022-12-21T05:43:36.906Z,100650.53
2022-12-21T05:46:05.235Z,100647.78
2022-12-21T05:48:32.686Z,100651.22
2022-12-21T05:50:59.284Z,100657.50
2022-12-21T05:53:25.759Z,100656.88
2022-12-21T05:55:52.998Z,100648.38
2022-12-21T05:58:20.037Z,100648.19
2022-12-21T06:00:46.991Z,100643.69
2022-12-21T06:03:13.371Z,100652.53
2022-12-21T06:05:39.760Z,100657.09
2022-12-21T06:08:06.221Z,100651.88
2022-12-21T06:10:32.566Z,100653.25
2022-12-21T06:12:58.921Z,100656.00
2022-12-21T06:15:25.393Z,100654.63
2022-12-21T06:17:51.951Z,100643.81
2022-12-21T06:20:18.463Z,100649.91
2022-12-21T06:22:45.390Z,100653.56
2022-12-21T06:25:11.813Z,100651.72
2022-12-21T06:27:38.141Z,100644.56
2022-12-21T06:30:05.329Z,100646.59
2022-12-21T06:32:31.678Z,100642.41
2022-12-21T06:34:58.031Z,100650.72
2022-12-21T06:37:24.396Z,100658.63
2022-12-21T06:39:50.731Z,100652.34
2022-12-21T06:42:17.073Z,100658.72
2022-12-21T06:44:43.475Z,100653.50
2022-12-21T06:47:09.846Z,100651.13
2022-12-21T06:49:36.214Z,100650.72
2022-12-21T06:52:02.554Z,100648.56
2022-12-21T06:54:28.875Z,100645.97
2022-12-21T06:56:55.732Z,100644.38
2022-12-21T06:59:22.097Z,100647.72
2022-12-21T07:01:48.495Z,100644.47
2022-12-21T07:04:15.022Z,100648.94
2022-12-21T07:06:42.479Z,100648.94
2022-12-21T07:09:08.866Z,100657.84
2022-12-21T07:11:35.224Z,100660.78
2022-12-21T07:14:01.732Z,100660.88
2022-12-21T07:16:28.141Z,100657.38
2022-12-21T07:18:54.737Z,100668.25
2022-12-21T07:21:22.548Z,100654.69
2022-12-21T07:23:49.973Z,100656.41
2022-12-21T07:26:19.360Z,100649.16
2022-12-21T07:28:46.916Z,100652.03
2022-12-21T07:31:16.951Z,100653.72
2022-12-21T07:33:43.681Z,100658.22
2022-12-21T07:36:10.752Z,100655.34
2022-12-21T07:38:38.950Z,100659.81
2022-12-21T07:41:08.208Z,100653.63
2022-12-21T07:43:35.695Z,100657.25
2022-12-21T07:46:13.130Z,100651.91
2022-12-21T07:48:39.556Z,100671.34
2022-12-21T07:51:06.923Z,100681.19
2022-12-21T07:53:34.705Z,100684.91
2022-12-21T07:56:03.174Z,100694.94
2022-12-21T07:58:29.530Z,100701.69
2022-12-21T08:00:59.944Z,100690.44
2022-12-21T08:03:29.224Z,100685.09
2022-12-21T08:05:55.691Z,100696.16
2022-12-21T08:08:22.009Z,100698.59
2022-12-21T08:10:48.357Z,100690.16
2022-12-21T08:13:14.703Z,100694.63
2022-12-21T08:15:41.067Z,100697.28
2022-12-21T08:18:10.635Z,100693.88
2022-12-21T08:20:37.315Z,100702.16
2022-12-21T08:23:03.676Z,100697.13
2022-12-21T08:25:30.918Z,100698.25
2022-12-21T08:27:57.260Z,100707.03
2022-12-21T08:30:23.700Z,100705.41
2022-12-21T08:32:50.266Z,100703.50
2022-12-21T08:35:16.963Z,100706.34
2022-12-21T08:37:43.277Z,100708.91
2022-12-21T08:40:10.122Z,100695.78
2022-12-21T08:42:36.449Z,100697.41
2022-12-21T08:45:02.908Z,100688.34
2022-12-21T08:47:29.269Z,100694.25
2022-12-21T08:49:55.650Z,100707.78
2022-12-21T08:52:22.064Z,100695.66
2022-12-21T08:54:48.423Z,100701.00
2022-12-21T08:57:14.751Z,100700.72
2022-12-21T08:59:46.413Z,100706.53
2022-12-21T09:02:15.080Z,100706.16
2022-12-21T09:04:41.662Z,100700.25
2022-12-21T09:07:08.094Z,100712.16
2022-12-21T09:09:34.724Z,100720.25
2022-12-21T09:12:01.538Z,100721.47
2022-12-21T09:14:28.859Z,100725.97
2022-12-21T09:16:55.380Z,100724.16
2022-12-21T09:19:22.147Z,100715.94
2022-12-21T09:21:48.504Z,100716.06
2022-12-21T09:24:14.897Z,100718.81
2022-12-21T09:26:42.168Z,100720.44
2022-12-21T09:29:10.952Z,100723.78
2022-12-21T09:31:37.440Z,100715.50
2022-12-21T09:34:03.860Z,100722.47
2022-12-21T09:36:30.370Z,100718.75
2022-12-21T09:38:57.408Z,100722.06
2022-12-21T09:41:30.476Z,100712.56
2022-12-21T09:44:21.771Z,100727.78
2022-12-21T09:46:52.191Z,100737.59
2022-12-21T09:49:22.559Z,100745.59
2022-12-21T09:51:58.788Z,100745.50
2022-12-21T09:54:36.795Z,100745.41
2022-12-21T09:57:06.922Z,100739.38
2022-12-21T09:59:33.290Z,100740.84
2022-12-21T10:02:34.150Z,100740.06
2022-12-21T10:05:20.986Z,100752.38
2022-12-21T10:08:00.795Z,100749.13
2022-12-21T10:10:39.996Z,100742.94
2022-12-21T10:13:41.350Z,100747.25
2022-12-21T10:16:28.531Z,100743.59
2022-12-21T10:19:32.905Z,100741.78
2022-12-21T10:22:14.094Z,100745.31
2022-12-21T10:24:54.593Z,100745.13
2022-12-21T10:27:22.850Z,100741.31
2022-12-21T10:29:57.786Z,100738.47
2022-12-21T10:32:35.314Z,100739.63
2022-12-21T10:35:28.813Z,100747.06
2022-12-21T10:37:56.237Z,100748.75
2022-12-21T10:40:27.562Z,100759.94
2022-12-21T10:42:54.852Z,100759.28
2022-12-21T10:45:26.808Z,100760.69
2022-12-21T10:47:54.303Z,100758.09
2022-12-21T10:50:33.321Z,100755.84
2022-12-21T10:53:16.444Z,100756.00
2022-12-21T10:55:44.673Z,100754.75
2022-12-21T10:58:11.032Z,100756.56
2022-12-21T11:00:48.533Z,100754.56
2022-12-21T11:03:29.162Z,100751.59
2022-12-21T11:05:56.726Z,100741.91
2022-12-21T11:08:26.859Z,100731.09
2022-12-21T11:10:59.593Z,100727.13
2022-12-21T11:13:28.112Z,100726.06
2022-12-21T11:16:13.305Z,100731.97
2022-12-21T11:18:46.920Z,100728.38
2022-12-21T11:21:13.215Z,100727.13
2022-12-21T11:23:39.932Z,100726.25
2022-12-21T11:26:16.087Z,100725.50
2022-12-21T11:28:43.151Z,100726.94
2022-12-21T11:31:09.895Z,100729.13
2022-12-21T11:33:36.442Z,100712.91
2022-12-21T11:36:12.652Z,100723.91
2022-12-21T11:38:40.047Z,100713.50
2022-12-21T11:41:16.626Z,100713.00
2022-12-21T11:43:50.839Z,100726.19
2022-12-21T11:46:49.231Z,100730.47
2022-12-21T11:49:35.196Z,100727.78
2022-12-21T11:52:07.406Z,100723.22
2022-12-21T11:54:36.840Z,100720.25
2022-12-21T11:57:06.058Z,100719.28
2022-12-21T11:59:38.600Z,100717.88
2022-12-21T12:02:15.088Z,100722.47
2022-12-21T12:05:04.805Z,100731.97
2022-12-21T12:07:55.370Z,100736.09
2022-12-21T12:10:52.403Z,100738.09
2022-12-21T12:13:41.533Z,100741.72
2022-12-21T12:16:14.666Z,100727.03
2022-12-21T12:18:58.013Z,100737.41
2022-12-21T12:21:39.471Z,100732.06
2022-12-21T12:24:30.487Z,100733.66
2022-12-21T12:27:20.296Z,100737.34
2022-12-21T12:30:13.348Z,100724.06
2022-12-21T12:33:06.505Z,100724.59
2022-12-21T12:35:35.553Z,100717.50
2022-12-21T12:38:32.846Z,100726.28
2022-12-21T12:41:22.001Z,100716.66
2022-12-21T12:44:16.115Z,100707.53
2022-12-21T12:47:07.491Z,100712.66
2022-12-21T12:49:54.839Z,100711.97
2022-12-21T12:52:54.064Z,100714.00
2022-12-21T12:55:39.952Z,100716.56
2022-12-21T12:58:23.381Z,100704.38
2022-12-21T13:01:17.696Z,100693.69
2022-12-21T13:04:17.485Z,100691.69
2022-12-21T13:06:53.069Z,100700.34
2022-12-21T13:09:29.285Z,100696.63
2022-12-21T13:12:21.913Z,100691.94
2022-12-21T13:14:57.309Z,100694.53
2022-12-21T13:17:38.799Z,100693.19
2022-12-21T13:20:07.160Z,100694.25
2022-12-21T13:22:37.105Z,100692.28
2022-12-21T13:25:19.323Z,100696.16
2022-12-21T13:27:47.744Z,100688.28
2022-12-21T13:30:20.287Z,100687.09
2022-12-21T13:32:54.567Z,100687.66
2022-12-21T13:35:35.678Z,100687.09
2022-12-21T13:38:09.739Z,100693.00
2022-12-21T13:40:43.064Z,100688.72
2022-12-21T13:43:19.646Z,100690.81
2022-12-21T13:45:55.926Z,100702.25
2022-12-21T13:48:29.560Z,100692.91
2022-12-21T13:51:27.079Z,100690.19
2022-12-21T13:54:21.323Z,100691.03
2022-12-21T13:56:53.783Z,100689.38
2022-12-21T13:59:44.853Z,100688.34
2022-12-21T14:02:47.563Z,100694.63
2022-12-21T14:05:20.039Z,100689.28
2022-12-21T14:08:04.899Z,100685.59
2022-12-21T14:11:11.948Z,100694.16
2022-12-21T14:13:47.473Z,100689.22
2022-12-21T14:16:17.970Z,100684.34
2022-12-21T14:18:45.988Z,100687.78
2022-12-21T14:21:12.305Z,100679.00
2022-12-21T14:23:51.103Z,100686.03
2022-12-21T14:26:43.402Z,100678.72
2022-12-21T14:29:36.489Z,100670.72
2022-12-21T14:32:13.399Z,100667.28
2022-12-21T14:34:51.737Z,100660.25
2022-12-21T14:37:21.910Z,100665.88
2022-12-21T14:39:48.219Z,100660.03
2022-12-21T14:42:37.032Z,100665.94
2022-12-21T14:45:12.812Z,100663.19
2022-12-21T14:47:41.084Z,100654.59
2022-12-21T14:50:19.621Z,100663.94
2022-12-21T14:52:58.321Z,100659.00
2022-12-21T14:55:36.940Z,100653.25
2022-12-21T14:58:43.136Z,100640.91
2022-12-21T15:01:13.409Z,100646.72
2022-12-21T15:03:47.795Z,100642.44
2022-12-21T15:06:42.923Z,100649.69
2022-12-21T15:09:21.245Z,100638.63
2022-12-21T15:11:55.856Z,100650.25
2022-12-21T15:14:29.902Z,100652.63
2022-12-21T15:17:00.713Z,100653.97
2022-12-21T15:19:42.515Z,100648.72
2022-12-21T15:22:33.666Z,100648.72
2022-12-21T15:25:13.725Z,100648.91
2022-12-21T15:27:59.142Z,100638.03
2022-12-21T15:30:35.798Z,100634.44
2022-12-21T15:33:15.665Z,100638.91
2022-12-21T15:35:44.756Z,100630.44
2022-12-21T15:38:30.194Z,100634.41
2022-12-21T15:41:06.070Z,100626.41
2022-12-21T15:43:57.770Z,100631.25
2022-12-21T15:46:41.450Z,100629.63
2022-12-21T15:49:08.699Z,100624.50
2022-12-21T15:51:40.680Z,100622.31
2022-12-21T15:54:17.888Z,100627.63
2022-12-21T15:56:54.352Z,100620.69
2022-12-21T15:59:30.191Z,100614.31
2022-12-21T16:01:58.103Z,100615.06
2022-12-21T16:04:27.619Z,100614.78
2022-12-21T16:06:59.398Z,100619.00
2022-12-21T16:09:28.338Z,100615.56
2022-12-21T16:12:19.974Z,100614.63
2022-12-21T16:14:41.014Z,100603.97
2022-12-21T16:17:23.683Z,100603.84
2022-12-21T16:19:55.326Z,100606.63
2022-12-21T16:22:24.997Z,100600.34
2022-12-21T16:25:29.374Z,100587.03
2022-12-21T16:27:47.924Z,100576.28
2022-12-21T16:30:15.115Z,100572.56
2022-12-21T16:32:41.469Z,100577.78
2022-12-21T16:35:19.098Z,100566.94
2022-12-21T16:37:45.865Z,100565.03
2022-12-21T16:40:22.105Z,100561.41
2022-12-21T16:42:52.340Z,100565.03
2022-12-21T16:45:21.673Z,100551.31
2022-12-21T16:48:16.051Z,100550.34
2022-12-21T16:50:54.448Z,100538.34
2022-12-21T16:53:36.102Z,100546.25
2022-12-21T16:56:17.923Z,100550.66
2022-12-21T16:58:54.983Z,100549.34
2022-12-21T17:01:40.336Z,100546.56
2022-12-21T17:04:30.163Z,100544.19
2022-12-21T17:06:59.728Z,100552.72
2022-12-21T17:09:29.009Z,100546.66
2022-12-21T17:12:03.142Z,100549.34
2022-12-21T17:14:31.924Z,100551.69
2022-12-21T17:17:19.356Z,100544.38
2022-12-21T17:20:15.464Z,100549.63
2022-12-21T17:22:55.679Z,100542.53
2022-12-21T17:25:22.058Z,100541.00
2022-12-21T17:27:59.858Z,100533.69
2022-12-21T17:30:29.985Z,100530.91
2022-12-21T17:32:56.709Z,100528.34
2022-12-21T17:35:23.830Z,100524.81
2022-12-21T17:37:54.672Z,100537.28
2022-12-21T17:40:23.816Z,100520.63
2022-12-21T17:42:50.582Z,100523.31
2022-12-21T17:45:19.321Z,100529.41
2022-12-21T17:47:47.265Z,100522.03
2022-12-21T17:50:43.039Z,100520.50
2022-12-21T17:53:20.859Z,100523.34
2022-12-21T17:55:48.163Z,100519.63
2022-12-21T17:58:14.770Z,100511.75
2022-12-21T18:00:42.697Z,100516.03
2022-12-21T18:03:18.594Z,100508.78
2022-12-21T18:05:45.366Z,100507.81
2022-12-21T18:08:13.299Z,100513.16
2022-12-21T18:10:41.094Z,100520.84
2022-12-21T18:13:07.764Z,100511.78
2022-12-21T18:15:36.952Z,100515.22
2022-12-21T18:18:07.596Z,100517.94
2022-12-21T18:20:40.343Z,100511.75
2022-12-21T18:23:16.151Z,100504.50
2022-12-21T18:25:43.471Z,100499.91
2022-12-21T18:28:15.858Z,100507.75
2022-12-21T18:30:45.590Z,100505.00
2022-12-21T18:33:14.961Z,100497.84
2022-12-21T18:35:42.018Z,100499.66
2022-12-21T18:38:16.575Z,100490.50
2022-12-21T18:40:42.944Z,100489.19
2022-12-21T18:43:27.579Z,100493.16
2022-12-21T18:46:01.613Z,100486.97
2022-12-21T18:48:29.373Z,100490.06
2022-12-21T18:50:55.947Z,100483.75
2022-12-21T18:53:22.794Z,100485.56
2022-12-21T18:55:49.775Z,100493.50
2022-12-21T18:58:16.222Z,100487.41
2022-12-21T19:00:44.867Z,100482.69
2022-12-21T19:03:26.209Z,100476.72
2022-12-21T19:05:54.477Z,100478.63
2022-12-21T19:08:22.442Z,100478.09
2022-12-21T19:10:49.306Z,100477.88
2022-12-21T19:13:31.001Z,100475.50
2022-12-21T19:16:06.218Z,100471.69
2022-12-21T19:18:40.379Z,100465.28
2022-12-21T19:21:07.229Z,100458.44
2022-12-21T19:23:33.697Z,100466.53
2022-12-21T19:26:00.075Z,100457.50
2022-12-21T19:28:26.450Z,100457.81
2022-12-21T19:30:52.845Z,100458.75
2022-12-21T19:33:19.394Z,100450.28
2022-12-21T19:35:50.257Z,100443.34
2022-12-21T19:38:23.005Z,100448.88
2022-12-21T19:40:53.279Z,100440.69
2022-12-21T19:43:20.416Z,100444.91
2022-12-21T19:45:47.017Z,100441.69
2022-12-21T19:48:37.071Z,100427.59
2022-12-21T19:51:09.488Z,100437.50
2022-12-21T19:53:44.741Z,100429.44
2022-12-21T19:56:20.273Z,100429.22
2022-12-21T19:58:48.983Z,100415.34
2022-12-21T20:01:29.931Z,100421.44
2022-12-21T20:03:58.334Z,100413.53
2022-12-21T20:06:25.787Z,100408.47
2022-12-21T20:08:52.189Z,100408.47
2022-12-21T20:11:20.490Z,100406.56
2022-12-21T20:13:48.692Z,100401.25
2022-12-21T20:16:16.582Z,100402.31
2022-12-21T20:18:43.915Z,100397.94
2022-12-21T20:21:21.738Z,100393.75
2022-12-21T20:23:52.145Z,100387.91
2022-12-21T20:26:26.431Z,100384.19
2022-12-21T20:28:56.151Z,100382.03
2022-12-21T20:31:23.010Z,100380.44
2022-12-21T20:33:50.955Z,100365.41
2022-12-21T20:36:37.312Z,100365.06
2022-12-21T20:39:12.678Z,100362.31
2022-12-21T20:41:57.793Z,100363.06
2022-12-21T20:44:24.410Z,100363.28
2022-12-21T20:46:51.006Z,100360.91
2022-12-21T20:49:24.647Z,100364.13
2022-12-21T20:51:51.846Z,100363.47
2022-12-21T20:54:20.513Z,100362.41
2022-12-21T20:56:49.109Z,100366.03
2022-12-21T20:59:16.352Z,100364.13
2022-12-21T21:01:58.142Z,100364.91
2022-12-21T21:04:27.757Z,100362.41
2022-12-21T21:06:54.492Z,100356.97
2022-12-21T21:09:31.921Z,100364.78
2022-12-21T21:12:00.868Z,100355.06
2022-12-21T21:14:27.290Z,100361.47
2022-12-21T21:16:55.308Z,100356.97
2022-12-21T21:19:43.331Z,100353.47
2022-12-21T21:22:56.471Z,100350.81
2022-12-21T21:25:36.136Z,100355.16
2022-12-21T21:28:23.896Z,100347.16
2022-12-21T21:30:53.064Z,100341.97
2022-12-21T21:33:20.137Z,100355.72
2022-12-21T21:35:49.784Z,100343.03
2022-12-21T21:38:44.468Z,100342.63
2022-12-21T21:41:32.962Z,100341.38
2022-12-21T21:44:30.590Z,100335.19
2022-12-21T21:46:58.977Z,100330.41
2022-12-21T21:49:32.212Z,100324.00
2022-12-21T21:51:58.619Z,100321.78
2022-12-21T21:54:25.566Z,100320.88
2022-12-21T21:56:54.589Z,100329.88
2022-12-21T21:59:26.043Z,100310.03
2022-12-21T22:01:55.752Z,100311.31
2022-12-21T22:04:22.948Z,100300.13
2022-12-21T22:06:50.456Z,100294.88
2022-12-21T22:09:16.814Z,100294.66
2022-12-21T22:11:46.455Z,100288.38
2022-12-21T22:14:21.904Z,100288.25
2022-12-21T22:19:55.322Z,100284.19
2022-12-21T22:22:41.718Z,100282.50
2022-12-21T22:25:35.063Z,100270.84
2022-12-21T22:28:21.623Z,100277.78
2022-12-21T22:31:07.117Z,100281.22
2022-12-21T22:33:33.501Z,100277.59
2022-12-21T22:36:18.371Z,100274.41
2022-12-21T22:39:03.106Z,100272.69
2022-12-21T22:41:47.933Z,100251.25
2022-12-21T22:44:14.290Z,100250.50
2022-12-21T22:46:40.729Z,100248.78
2022-12-21T22:49:07.084Z,100246.00
2022-12-21T22:51:33.512Z,100237.78
2022-12-21T22:54:03.113Z,100239.69
2022-12-21T22:56:34.041Z,100240.03
2022-12-21T22:59:08.559Z,100243.34
2022-12-21T23:01:35.691Z,100237.16
2022-12-21T23:04:03.512Z,100237.25
2022-12-21T23:06:30.073Z,100238.19
2022-12-21T23:08:56.425Z,100242.69
2022-12-21T23:11:35.104Z,100237.47
2022-12-21T23:14:35.374Z,100230.31
2022-12-21T23:17:05.629Z,100227.88
2022-12-21T23:19:31.977Z,100230.31
2022-12-21T23:22:17.110Z,100226.91
2022-12-21T23:25:02.812Z,100220.81
2022-12-21T23:27:53.683Z,100225.53
2022-12-21T23:31:01.373Z,100212.06
2022-12-21T23:33:48.709Z,100208.66
2022-12-21T23:36:39.028Z,100200.69
2022-12-21T23:39:41.617Z,100198.25
2022-12-21T23:42:36.406Z,100190.00
2022-12-21T23:45:03.163Z,100186.41
2022-12-21T23:47:47.754Z,100186.50
2022-12-21T23:50:32.491Z,100194.06
2022-12-21T23:53:17.756Z,100190.91
2022-12-21T23:56:03.041Z,100193.34
2022-12-21T23:58:47.805Z,100192.59
